createdAt,value
2022-10-20T00:00:02.319Z,16.78
2022-10-20T00:05:08.540Z,16.77
2022-10-20T00:10:11.650Z,16.74
2022-10-20T00:15:15.886Z,16.74
2022-10-20T00:20:18.589Z,16.73
2022-10-20T00:25:21.312Z,16.71
2022-10-20T00:30:25.785Z,16.69
2022-10-20T00:35:28.516Z,16.69
2022-10-20T00:40:31.284Z,16.66
2022-10-20T00:45:35.393Z,16.66
2022-10-20T00:50:41.532Z,16.64
2022-10-20T00:55:47.509Z,16.63
2022-10-20T01:00:54.868Z,16.62
2022-10-20T01:05:57.552Z,16.61
2022-10-20T01:11:08.052Z,16.58
2022-10-20T01:16:17.212Z,16.59
2022-10-20T01:21:32.792Z,16.58
2022-10-20T01:26:50.367Z,16.57
2022-10-20T01:32:01.799Z,16.56
2022-10-20T01:37:09.918Z,16.56
2022-10-20T01:42:16.027Z,16.53
2022-10-20T01:47:21.082Z,16.53
2022-10-20T01:52:24.961Z,16.52
2022-10-20T01:57:38.394Z,16.52
2022-10-20T02:03:00.456Z,16.52
2022-10-20T02:08:10.338Z,16.52
2022-10-20T02:13:13.818Z,16.53
2022-10-20T02:18:20.948Z,16.51
2022-10-20T02:23:24.320Z,16.50
2022-10-20T02:28:28.210Z,16.48
2022-10-20T02:33:32.617Z,16.48
2022-10-20T02:38:35.386Z,16.47
2022-10-20T02:43:38.249Z,16.46
2022-10-20T02:48:42.272Z,16.47
2022-10-20T02:53:45.012Z,16.46
2022-10-20T02:58:47.746Z,16.45
2022-10-20T03:03:51.864Z,16.43
2022-10-20T03:08:54.664Z,16.43
2022-10-20T03:13:57.388Z,16.41
2022-10-20T03:19:04.690Z,16.42
2022-10-20T03:24:09.896Z,16.43
2022-10-20T03:29:12.717Z,16.39
2022-10-20T03:34:16.851Z,16.39
2022-10-20T03:39:19.752Z,16.38
2022-10-20T03:44:22.557Z,16.38
2022-10-20T03:49:26.890Z,16.38
2022-10-20T03:54:29.713Z,16.39
2022-10-20T03:59:32.500Z,16.36
2022-10-20T04:04:36.632Z,16.39
2022-10-20T04:09:39.364Z,16.37
2022-10-20T04:14:42.136Z,16.35
2022-10-20T04:19:46.240Z,16.34
2022-10-20T04:24:48.913Z,16.34
2022-10-20T04:29:51.634Z,16.32
2022-10-20T04:34:55.676Z,16.34
2022-10-20T04:39:58.627Z,16.32
2022-10-20T04:45:01.379Z,16.31
2022-10-20T04:50:06.356Z,16.31
2022-10-20T04:55:10.164Z,16.30
2022-10-20T05:00:14.149Z,16.30
2022-10-20T05:05:18.380Z,16.28
2022-10-20T05:10:21.104Z,16.29
2022-10-20T05:15:23.856Z,16.27
2022-10-20T05:20:30.921Z,16.29
2022-10-20T05:25:37.191Z,16.28
2022-10-20T05:30:40.360Z,16.29
2022-10-20T05:35:44.448Z,16.25
2022-10-20T05:40:47.143Z,16.29
2022-10-20T05:45:54.840Z,16.30
2022-10-20T05:51:10.676Z,16.28
2022-10-20T05:56:18.959Z,16.27
2022-10-20T06:01:24.836Z,16.27
2022-10-20T06:06:30.870Z,16.27
2022-10-20T06:11:37.120Z,16.25
2022-10-20T06:16:41.856Z,16.26
2022-10-20T06:21:45.970Z,16.25
2022-10-20T06:26:48.610Z,16.28
2022-10-20T06:31:52.406Z,16.27
2022-10-20T06:36:56.434Z,16.26
2022-10-20T06:41:59.225Z,16.27
2022-10-20T06:47:10.265Z,16.29
2022-10-20T06:52:14.392Z,16.29
2022-10-20T06:57:17.091Z,16.32
2022-10-20T07:02:21.782Z,16.30
2022-10-20T07:07:25.991Z,16.32
2022-10-20T07:12:28.694Z,16.34
2022-10-20T07:17:31.392Z,16.39
2022-10-20T07:22:37.272Z,16.41
2022-10-20T07:27:40.330Z,16.44
2022-10-20T07:32:43.247Z,16.54
2022-10-20T07:37:47.326Z,16.58
2022-10-20T07:42:50.040Z,16.66
2022-10-20T07:47:52.705Z,16.70
2022-10-20T07:52:57.052Z,16.72
2022-10-20T07:57:59.715Z,16.75
2022-10-20T08:03:02.386Z,16.75
2022-10-20T08:08:06.875Z,16.79
2022-10-20T08:13:09.555Z,16.84
2022-10-20T08:18:12.320Z,16.90
2022-10-20T08:23:17.051Z,16.88
2022-10-20T08:28:22.239Z,16.95
2022-10-20T08:33:27.522Z,17.00
2022-10-20T08:38:31.701Z,16.99
2022-10-20T08:43:37.694Z,16.96
2022-10-20T08:48:40.515Z,17.16
2022-10-20T08:53:44.619Z,17.25
2022-10-20T08:58:47.738Z,17.10
2022-10-20T09:03:53.795Z,17.18
2022-10-20T09:08:58.661Z,17.17
2022-10-20T09:14:01.427Z,17.07
2022-10-20T09:19:04.085Z,17.10
2022-10-20T09:24:09.137Z,17.06
2022-10-20T09:29:14.615Z,17.04
2022-10-20T09:34:22.566Z,17.09
2022-10-20T09:39:29.153Z,17.08
2022-10-20T09:44:33.600Z,17.10
2022-10-20T09:49:38.072Z,17.10
2022-10-20T09:54:42.246Z,17.06
2022-10-20T09:59:46.910Z,17.07
2022-10-20T10:04:51.056Z,17.11
2022-10-20T10:09:57.475Z,17.12
2022-10-20T10:15:01.880Z,17.16
2022-10-20T10:20:06.967Z,17.15
2022-10-20T10:25:17.602Z,17.18
2022-10-20T10:30:28.489Z,17.14
2022-10-20T10:35:34.815Z,17.17
2022-10-20T10:40:44.512Z,17.23
2022-10-20T10:45:53.413Z,17.25
2022-10-20T10:50:59.835Z,17.22
2022-10-20T10:56:14.096Z,17.22
2022-10-20T11:01:38.662Z,17.22
2022-10-20T11:06:44.643Z,17.24
2022-10-20T11:11:59.207Z,17.27
2022-10-20T11:17:13.127Z,17.23
2022-10-20T11:22:23.892Z,17.22
2022-10-20T11:27:31.164Z,17.16
2022-10-20T11:32:37.779Z,17.14
2022-10-20T11:37:43.616Z,17.16
2022-10-20T11:42:53.611Z,17.11
2022-10-20T11:48:01.542Z,17.08
2022-10-20T11:53:25.804Z,17.04
2022-10-20T11:59:17.128Z,17.03
2022-10-20T12:04:52.653Z,17.04
2022-10-20T12:10:03.639Z,16.99
2022-10-20T12:15:21.332Z,16.97
2022-10-20T12:20:50.253Z,16.97
2022-10-20T12:25:53.151Z,16.93
2022-10-20T12:30:59.205Z,16.95
2022-10-20T12:36:14.837Z,16.92
2022-10-20T12:41:26.401Z,16.91
2022-10-20T12:46:32.384Z,16.89
2022-10-20T12:51:37.100Z,16.88
2022-10-20T12:56:41.779Z,16.92
2022-10-20T13:02:36.266Z,16.95
2022-10-20T13:08:12.668Z,17.01
2022-10-20T13:13:48.716Z,17.07
2022-10-20T13:18:53.655Z,17.16
2022-10-20T13:24:02.803Z,17.20
2022-10-20T13:29:12.955Z,17.23
2022-10-20T13:34:19.339Z,17.21
2022-10-20T13:39:32.280Z,17.26
2022-10-20T13:44:41.076Z,17.25
2022-10-20T13:49:53.223Z,17.24
2022-10-20T13:54:58.103Z,17.21
2022-10-20T14:00:02.645Z,17.20
2022-10-20T14:05:12.151Z,17.24
2022-10-20T14:10:28.591Z,17.32
2022-10-20T14:15:33.669Z,17.32
2022-10-20T14:20:38.619Z,17.37
2022-10-20T14:25:42.920Z,17.36
2022-10-20T14:30:47.125Z,17.35
2022-10-20T14:35:52.714Z,17.35
2022-10-20T14:41:07.861Z,17.37
2022-10-20T14:46:12.494Z,17.40
2022-10-20T14:51:35.726Z,17.42
2022-10-20T14:56:44.315Z,17.39
2022-10-20T15:01:58.057Z,17.39
2022-10-20T15:07:06.066Z,17.36
2022-10-20T15:12:16.461Z,17.33
2022-10-20T15:17:37.002Z,17.27
2022-10-20T15:22:40.120Z,17.26
2022-10-20T15:27:44.233Z,17.25
2022-10-20T15:32:47.058Z,17.23
2022-10-20T15:37:51.164Z,17.22
2022-10-20T15:42:55.283Z,17.21
2022-10-20T15:47:57.946Z,17.19
2022-10-20T15:53:00.741Z,17.19
2022-10-20T15:58:04.866Z,17.16
2022-10-20T16:03:07.816Z,17.13
2022-10-20T16:08:10.804Z,17.11
2022-10-20T16:13:15.810Z,17.08
2022-10-20T16:18:18.544Z,17.08
2022-10-20T16:23:21.227Z,17.03
2022-10-20T16:28:25.375Z,17.02
2022-10-20T16:33:29.099Z,16.98
2022-10-20T16:38:37.274Z,16.99
2022-10-20T16:43:45.335Z,16.99
2022-10-20T16:48:48.464Z,16.97
2022-10-20T16:53:51.258Z,16.98
2022-10-20T16:58:55.315Z,16.94
2022-10-20T17:03:58.035Z,16.94
2022-10-20T17:09:00.804Z,16.96
2022-10-20T17:14:04.967Z,16.94
2022-10-20T17:19:07.826Z,16.94
2022-10-20T17:24:12.251Z,16.95
2022-10-20T17:29:16.287Z,16.94
2022-10-20T17:34:19.004Z,16.93
2022-10-20T17:39:22.253Z,16.94
2022-10-20T17:44:26.368Z,16.94
2022-10-20T17:49:29.180Z,16.93
2022-10-20T17:54:31.886Z,16.93
2022-10-20T17:59:42.537Z,16.93
2022-10-20T18:04:55.367Z,16.94
2022-10-20T18:09:58.025Z,16.96
2022-10-20T18:15:02.083Z,16.96
2022-10-20T18:20:05.572Z,16.95
2022-10-20T18:25:09.409Z,16.95
2022-10-20T18:30:13.660Z,16.94
2022-10-20T18:35:16.556Z,16.96
2022-10-20T18:40:20.542Z,16.92
2022-10-20T18:45:26.027Z,16.93
2022-10-20T18:50:29.023Z,16.93
2022-10-20T18:55:31.711Z,16.92
2022-10-20T19:00:35.819Z,16.92
2022-10-20T19:05:39.145Z,16.91
2022-10-20T19:10:44.058Z,16.91
2022-10-20T19:15:48.134Z,16.91
2022-10-20T19:20:57.713Z,16.93
2022-10-20T19:26:04.982Z,16.90
2022-10-20T19:43:20.474Z,16.94
2022-10-20T19:48:23.231Z,16.92
2022-10-20T19:53:26.019Z,16.94
2022-10-20T19:58:29.998Z,16.93
2022-10-20T20:03:32.788Z,16.93
2022-10-20T20:08:35.976Z,16.94
2022-10-20T20:13:40.062Z,16.93
2022-10-20T20:18:42.663Z,16.95
2022-10-20T20:23:59.022Z,16.93
2022-10-20T20:29:04.859Z,16.92
2022-10-20T20:34:07.576Z,16.90
2022-10-20T20:39:13.046Z,16.90
2022-10-20T20:49:31.158Z,16.90
2022-10-20T20:54:33.767Z,16.93
2022-10-20T20:59:37.733Z,16.91
2022-10-20T21:04:40.333Z,16.91
2022-10-20T21:09:42.917Z,16.90
2022-10-20T21:14:48.162Z,16.87
2022-10-20T21:19:50.759Z,16.91
2022-10-20T21:24:53.366Z,16.91
2022-10-20T21:29:57.394Z,16.93
2022-10-20T21:35:00.155Z,16.95
2022-10-20T21:40:02.768Z,16.93
2022-10-20T21:45:07.531Z,16.96
2022-10-20T21:50:10.119Z,16.95
2022-10-20T21:55:12.728Z,16.96
2022-10-20T22:00:20.582Z,16.96
2022-10-20T22:05:25.856Z,16.97
2022-10-20T22:10:28.500Z,16.98
2022-10-20T22:15:32.902Z,16.99
2022-10-20T22:20:37.121Z,16.96
2022-10-20T22:25:40.241Z,17.01
2022-10-20T22:30:44.264Z,17.00
2022-10-20T22:35:46.956Z,16.95
2022-10-20T22:40:49.560Z,16.98
2022-10-20T22:45:53.498Z,16.99
2022-10-20T22:50:56.139Z,16.98
2022-10-20T22:56:05.562Z,16.96
2022-10-20T23:01:11.965Z,16.97
2022-10-20T23:06:16.671Z,16.96
2022-10-20T23:11:20.118Z,16.96
2022-10-20T23:21:32.447Z,16.96
2022-10-20T23:26:35.088Z,16.96
2022-10-20T23:31:39.096Z,16.93
2022-10-20T23:36:41.720Z,16.92
2022-10-20T23:41:44.718Z,16.94
2022-10-20T23:46:48.757Z,16.93
2022-10-20T23:51:51.351Z,16.95
2022-10-20T23:56:53.925Z,16.89
